createdAt,value
2022-11-30T00:00:01.530Z,4.49
2022-11-30T00:02:29.946Z,4.53
2022-11-30T00:04:56.354Z,4.47
2022-11-30T00:07:22.799Z,4.50
2022-11-30T00:09:49.227Z,4.46
2022-11-30T00:12:15.826Z,4.51
2022-11-30T00:14:42.190Z,4.50
2022-11-30T00:17:08.621Z,4.51
2022-11-30T00:19:35.023Z,4.54
2022-11-30T00:22:01.395Z,4.43
2022-11-30T00:24:27.777Z,4.47
2022-11-30T00:26:54.166Z,4.45
2022-11-30T00:29:20.529Z,4.48
2022-11-30T00:31:46.999Z,4.42
2022-11-30T00:34:13.417Z,4.45
2022-11-30T00:36:39.805Z,4.44
2022-11-30T00:39:06.357Z,4.46
2022-11-30T00:41:32.754Z,4.50
2022-11-30T00:43:59.144Z,4.48
2022-11-30T00:46:25.679Z,4.43
2022-11-30T00:48:52.149Z,4.44
2022-11-30T00:51:19.249Z,4.35
2022-11-30T00:53:47.591Z,4.40
2022-11-30T00:56:14.455Z,4.44
2022-11-30T00:58:41.240Z,4.40
2022-11-30T01:01:08.466Z,4.38
2022-11-30T01:03:34.904Z,4.34
2022-11-30T01:06:03.544Z,4.39
2022-11-30T01:08:30.228Z,4.38
2022-11-30T01:10:57.714Z,4.41
2022-11-30T01:13:24.441Z,4.37
2022-11-30T01:15:50.872Z,4.33
2022-11-30T01:18:17.319Z,4.36
2022-11-30T01:20:43.802Z,4.34
2022-11-30T01:23:11.083Z,4.38
2022-11-30T01:25:37.545Z,4.19
2022-11-30T01:28:04.067Z,4.38
2022-11-30T01:30:30.571Z,4.26
2022-11-30T01:33:02.047Z,4.31
2022-11-30T01:35:28.415Z,4.24
2022-11-30T01:37:54.799Z,4.18
2022-11-30T01:40:21.246Z,4.25
2022-11-30T01:42:47.908Z,4.16
2022-11-30T01:45:14.780Z,4.20
2022-11-30T01:47:46.790Z,4.21
2022-11-30T01:50:22.946Z,4.19
2022-11-30T01:52:53.818Z,4.21
2022-11-30T01:55:25.199Z,4.20
2022-11-30T01:57:57.088Z,4.30
2022-11-30T02:00:24.092Z,4.23
2022-11-30T02:03:06.993Z,4.22
2022-11-30T02:05:35.930Z,4.19
2022-11-30T02:08:02.484Z,4.18
2022-11-30T02:10:32.500Z,4.18
2022-11-30T02:13:17.564Z,4.09
2022-11-30T02:16:01.798Z,4.18
2022-11-30T02:18:37.720Z,4.16
2022-11-30T02:21:46.024Z,4.31
2022-11-30T02:24:27.837Z,4.12
2022-11-30T02:27:10.093Z,4.08
2022-11-30T02:30:03.042Z,4.08
2022-11-30T02:32:36.001Z,4.04
2022-11-30T02:35:04.778Z,4.05
2022-11-30T02:37:33.246Z,3.93
2022-11-30T02:39:59.637Z,3.87
2022-11-30T02:42:26.085Z,4.04
2022-11-30T02:44:53.624Z,3.97
2022-11-30T02:47:45.344Z,3.90
2022-11-30T02:50:17.309Z,4.02
2022-11-30T02:52:44.652Z,4.00
2022-11-30T02:55:15.127Z,4.01
2022-11-30T02:57:41.603Z,3.97
2022-11-30T03:00:10.761Z,4.01
2022-11-30T03:02:38.741Z,3.97
2022-11-30T03:05:05.847Z,4.02
2022-11-30T03:07:32.628Z,4.00
2022-11-30T03:09:59.937Z,3.94
2022-11-30T03:12:26.573Z,3.96
2022-11-30T03:14:53.200Z,4.01
2022-11-30T03:17:19.588Z,4.01
2022-11-30T03:19:45.963Z,4.02
2022-11-30T03:22:12.378Z,3.95
2022-11-30T03:24:38.757Z,3.98
2022-11-30T03:27:05.184Z,4.05
2022-11-30T03:29:31.597Z,4.05
2022-11-30T03:31:58.044Z,4.08
2022-11-30T03:34:26.475Z,4.01
2022-11-30T03:36:53.356Z,4.07
2022-11-30T03:39:19.776Z,4.05
2022-11-30T03:41:46.168Z,4.05
2022-11-30T03:44:12.547Z,4.10
2022-11-30T03:46:39.067Z,4.03
2022-11-30T03:49:05.802Z,4.07
2022-11-30T03:51:32.207Z,4.05
2022-11-30T03:53:58.853Z,4.11
2022-11-30T03:56:25.490Z,4.10
2022-11-30T03:58:52.007Z,4.15
2022-11-30T04:01:24.297Z,4.06
2022-11-30T04:03:52.207Z,4.08
2022-11-30T04:06:20.410Z,4.11
2022-11-30T04:08:47.453Z,4.10
2022-11-30T04:11:14.645Z,4.05
2022-11-30T04:13:41.543Z,4.10
2022-11-30T04:16:09.141Z,4.01
2022-11-30T04:18:37.123Z,4.08
2022-11-30T04:21:04.331Z,4.06
2022-11-30T04:23:33.257Z,4.07
2022-11-30T04:26:00.018Z,4.13
2022-11-30T04:28:26.414Z,3.92
2022-11-30T04:30:54.133Z,4.05
2022-11-30T04:33:20.559Z,4.06
2022-11-30T04:35:50.037Z,4.04
2022-11-30T04:38:16.952Z,4.07
2022-11-30T04:40:43.745Z,4.06
2022-11-30T04:43:11.217Z,4.08
2022-11-30T04:45:37.815Z,4.07
2022-11-30T04:48:05.483Z,4.13
2022-11-30T04:50:31.950Z,4.06
2022-11-30T04:52:58.491Z,4.06
2022-11-30T04:55:25.436Z,4.14
2022-11-30T04:57:52.040Z,4.04
2022-11-30T05:00:19.576Z,4.01
2022-11-30T05:02:52.177Z,4.06
2022-11-30T05:05:19.627Z,4.01
2022-11-30T05:07:55.848Z,4.00
2022-11-30T05:10:22.612Z,4.00
2022-11-30T05:12:50.132Z,3.96
2022-11-30T05:15:16.969Z,4.02
2022-11-30T05:17:43.398Z,4.05
2022-11-30T05:20:10.127Z,3.96
2022-11-30T05:22:36.535Z,4.08
2022-11-30T05:25:03.419Z,4.05
2022-11-30T05:27:29.881Z,3.99
2022-11-30T05:29:56.309Z,4.01
2022-11-30T05:32:22.743Z,4.05
2022-11-30T05:34:51.770Z,4.01
2022-11-30T05:37:19.371Z,4.06
2022-11-30T05:39:45.772Z,4.08
2022-11-30T05:42:12.142Z,4.03
2022-11-30T05:44:38.604Z,4.15
2022-11-30T05:47:05.261Z,4.10
2022-11-30T05:49:31.697Z,4.21
2022-11-30T05:51:58.055Z,4.12
2022-11-30T05:54:24.477Z,4.11
2022-11-30T05:56:54.665Z,4.13
2022-11-30T05:59:22.237Z,4.08
2022-11-30T06:01:48.851Z,4.17
2022-11-30T06:04:15.348Z,4.12
2022-11-30T06:06:41.709Z,4.12
2022-11-30T06:09:08.262Z,4.12
2022-11-30T06:11:34.637Z,4.16
2022-11-30T06:14:01.030Z,4.10
2022-11-30T06:16:27.487Z,4.08
2022-11-30T06:18:53.963Z,4.07
2022-11-30T06:21:24.449Z,4.07
2022-11-30T06:23:51.884Z,4.05
2022-11-30T06:26:18.324Z,4.04
2022-11-30T06:28:48.095Z,4.07
2022-11-30T06:31:14.791Z,4.07
2022-11-30T06:33:41.369Z,4.06
2022-11-30T06:36:08.293Z,4.06
2022-11-30T06:38:34.727Z,4.08
2022-11-30T06:41:09.825Z,4.11
2022-11-30T06:43:37.847Z,4.09
2022-11-30T06:46:05.967Z,4.16
2022-11-30T06:48:33.237Z,4.10
2022-11-30T06:51:00.488Z,4.07
2022-11-30T06:53:27.407Z,4.20
2022-11-30T06:55:53.932Z,4.12
2022-11-30T06:58:20.382Z,4.11
2022-11-30T07:01:33.050Z,4.08
2022-11-30T07:03:59.490Z,4.08
2022-11-30T07:06:25.980Z,4.07
2022-11-30T07:08:52.346Z,4.12
2022-11-30T07:11:18.774Z,4.03
2022-11-30T07:13:45.684Z,4.07
2022-11-30T07:16:13.684Z,4.10
2022-11-30T07:18:40.213Z,4.07
2022-11-30T07:21:07.136Z,4.12
2022-11-30T07:23:56.360Z,4.11
2022-11-30T07:26:24.411Z,4.09
2022-11-30T07:28:54.614Z,4.11
2022-11-30T07:31:23.826Z,4.11
2022-11-30T07:33:50.704Z,4.13
2022-11-30T07:36:18.734Z,4.13
2022-11-30T07:38:45.789Z,4.22
2022-11-30T07:41:12.550Z,4.15
2022-11-30T07:43:39.533Z,4.08
2022-11-30T07:46:06.504Z,4.13
2022-11-30T07:48:33.920Z,4.25
2022-11-30T07:51:10.101Z,4.13
2022-11-30T07:53:36.688Z,4.22
2022-11-30T07:56:08.621Z,4.18
2022-11-30T07:58:35.219Z,4.21
2022-11-30T08:01:10.594Z,4.24
2022-11-30T08:03:37.593Z,4.22
2022-11-30T08:06:06.828Z,4.16
2022-11-30T08:08:35.813Z,4.16
2022-11-30T08:11:03.744Z,4.22
2022-11-30T08:13:30.604Z,4.17
2022-11-30T08:16:02.244Z,4.01
2022-11-30T08:18:28.706Z,4.16
2022-11-30T08:21:00.120Z,4.17
2022-11-30T08:23:38.000Z,4.17
2022-11-30T08:26:11.218Z,4.20
2022-11-30T08:28:37.744Z,4.36
2022-11-30T08:31:07.515Z,4.25
2022-11-30T08:33:35.371Z,4.28
2022-11-30T08:36:12.329Z,4.24
2022-11-30T08:38:39.958Z,4.27
2022-11-30T08:41:07.984Z,4.25
2022-11-30T08:43:34.671Z,4.32
2022-11-30T08:46:27.379Z,4.33
2022-11-30T08:49:12.576Z,4.35
2022-11-30T08:52:08.801Z,4.30
2022-11-30T08:54:27.386Z,4.38
2022-11-30T08:56:53.812Z,4.33
2022-11-30T08:59:20.259Z,4.34
2022-11-30T09:01:46.720Z,4.34
2022-11-30T09:04:13.112Z,4.36
2022-11-30T09:06:39.492Z,4.38
2022-11-30T09:09:06.403Z,4.41
2022-11-30T09:11:33.730Z,4.45
2022-11-30T09:14:02.107Z,4.53
2022-11-30T09:16:28.721Z,4.45
2022-11-30T09:18:55.158Z,4.42
2022-11-30T09:21:24.128Z,4.46
2022-11-30T09:23:51.563Z,4.43
2022-11-30T09:26:20.612Z,4.48
2022-11-30T09:28:47.705Z,4.48
2022-11-30T09:31:16.466Z,4.54
2022-11-30T09:33:43.379Z,4.59
2022-11-30T09:36:11.937Z,4.77
2022-11-30T09:38:39.009Z,4.68
2022-11-30T09:41:33.460Z,4.55
2022-11-30T09:44:18.680Z,4.61
2022-11-30T09:46:57.504Z,4.66
2022-11-30T09:49:37.167Z,4.68
2022-11-30T09:52:09.063Z,4.71
2022-11-30T09:54:41.139Z,4.71
2022-11-30T09:57:29.070Z,4.70
2022-11-30T09:59:56.997Z,4.64
2022-11-30T10:02:34.749Z,4.76
2022-11-30T10:05:01.736Z,4.73
2022-11-30T10:07:58.954Z,4.75
2022-11-30T10:10:56.197Z,4.76
2022-11-30T10:13:44.721Z,4.76
2022-11-30T10:16:35.382Z,4.77
2022-11-30T10:19:20.174Z,4.80
2022-11-30T10:22:04.538Z,4.86
2022-11-30T10:24:36.964Z,4.83
2022-11-30T10:27:18.730Z,4.85
2022-11-30T10:29:45.087Z,4.82
2022-11-30T10:32:29.167Z,4.85
2022-11-30T10:35:21.395Z,4.85
2022-11-30T10:37:51.449Z,4.84
2022-11-30T10:40:34.328Z,4.85
2022-11-30T10:43:32.886Z,4.93
2022-11-30T10:45:59.686Z,4.90
2022-11-30T10:48:34.152Z,4.92
2022-11-30T10:51:02.789Z,4.88
2022-11-30T10:53:29.323Z,4.93
2022-11-30T10:56:01.564Z,4.88
2022-11-30T10:58:33.000Z,4.90
2022-11-30T11:01:05.969Z,4.94
2022-11-30T11:03:33.306Z,4.89
2022-11-30T11:06:11.126Z,4.95
2022-11-30T11:08:37.530Z,4.97
2022-11-30T11:11:05.009Z,4.97
2022-11-30T11:13:41.025Z,5.00
2022-11-30T11:16:13.298Z,4.95
2022-11-30T11:18:56.208Z,5.03
2022-11-30T11:21:23.949Z,5.04
2022-11-30T11:23:53.752Z,5.00
2022-11-30T11:26:22.775Z,5.01
2022-11-30T11:28:51.721Z,5.01
2022-11-30T11:31:44.303Z,5.04
2022-11-30T11:34:49.405Z,5.05
2022-11-30T11:37:21.024Z,5.05
2022-11-30T11:40:02.416Z,4.98
2022-11-30T11:42:36.975Z,5.03
2022-11-30T11:45:04.611Z,5.07
2022-11-30T11:47:40.612Z,5.18
2022-11-30T11:50:57.746Z,5.10
2022-11-30T11:53:47.411Z,5.08
2022-11-30T11:56:24.258Z,5.11
2022-11-30T11:58:57.642Z,5.14
2022-11-30T12:01:42.722Z,5.08
2022-11-30T12:04:17.174Z,5.11
2022-11-30T12:06:45.273Z,5.10
2022-11-30T12:09:16.045Z,5.15
2022-11-30T12:11:45.523Z,5.17
2022-11-30T12:14:18.122Z,5.15
2022-11-30T12:16:56.839Z,5.21
2022-11-30T12:19:41.372Z,5.19
2022-11-30T12:22:19.818Z,5.09
2022-11-30T12:25:19.876Z,5.14
2022-11-30T12:28:20.419Z,5.15
2022-11-30T12:31:13.129Z,5.15
2022-11-30T12:34:00.518Z,5.18
2022-11-30T12:36:45.330Z,5.16
2022-11-30T12:39:30.486Z,5.14
2022-11-30T12:42:05.416Z,5.18
2022-11-30T12:44:45.857Z,5.08
2022-11-30T12:47:36.795Z,5.14
2022-11-30T12:50:15.507Z,5.13
2022-11-30T12:53:13.975Z,5.22
2022-11-30T12:55:46.061Z,5.24
2022-11-30T12:58:40.791Z,5.20
2022-11-30T13:01:49.885Z,5.38
2022-11-30T13:04:18.954Z,5.29
2022-11-30T13:07:16.172Z,5.20
2022-11-30T13:09:50.265Z,5.25
2022-11-30T13:12:24.726Z,5.31
2022-11-30T13:14:58.508Z,5.29
2022-11-30T13:17:26.789Z,5.28
2022-11-30T13:19:59.172Z,5.28
2022-11-30T13:22:50.631Z,5.26
2022-11-30T13:26:06.828Z,5.22
2022-11-30T13:28:30.832Z,5.19
2022-11-30T13:31:18.962Z,5.20
2022-11-30T13:33:55.248Z,5.20
2022-11-30T13:36:44.506Z,5.21
2022-11-30T13:39:13.801Z,5.13
2022-11-30T13:41:47.501Z,5.16
2022-11-30T13:44:31.945Z,5.15
2022-11-30T13:47:00.505Z,5.16
2022-11-30T13:49:35.647Z,5.14
2022-11-30T13:54:51.387Z,5.15
2022-11-30T13:57:38.232Z,5.12
2022-11-30T14:00:32.545Z,5.07
2022-11-30T14:03:20.799Z,5.09
2022-11-30T14:05:58.609Z,5.11
2022-11-30T14:08:25.894Z,5.09
2022-11-30T14:11:15.649Z,5.02
2022-11-30T14:13:42.516Z,5.03
2022-11-30T14:16:27.287Z,4.98
2022-11-30T14:18:55.549Z,5.01
2022-11-30T14:21:31.116Z,5.10
2022-11-30T14:24:14.017Z,5.00
2022-11-30T14:26:44.224Z,5.01
2022-11-30T14:29:32.821Z,5.00
2022-11-30T14:32:13.620Z,4.96
2022-11-30T14:34:51.399Z,5.00
2022-11-30T14:37:26.079Z,4.97
2022-11-30T14:39:56.589Z,4.93
2022-11-30T14:42:29.277Z,4.79
2022-11-30T14:44:56.428Z,4.74
2022-11-30T14:47:26.396Z,4.63
2022-11-30T14:49:56.309Z,4.60
2022-11-30T14:52:44.115Z,4.64
2022-11-30T14:55:26.120Z,4.67
2022-11-30T14:58:07.074Z,4.64
2022-11-30T15:00:38.729Z,4.66
2022-11-30T15:03:16.145Z,4.65
2022-11-30T15:05:43.473Z,4.59
2022-11-30T15:08:15.060Z,4.59
2022-11-30T15:10:41.884Z,4.55
2022-11-30T15:13:14.310Z,4.56
2022-11-30T15:15:50.753Z,4.62
2022-11-30T15:18:19.111Z,4.56
2022-11-30T15:21:02.141Z,4.55
2022-11-30T15:23:28.939Z,4.57
2022-11-30T15:26:04.308Z,4.55
2022-11-30T15:28:39.543Z,4.49
2022-11-30T15:31:12.628Z,4.52
2022-11-30T15:33:45.335Z,4.51
2022-11-30T15:36:27.914Z,4.48
2022-11-30T15:39:02.389Z,4.44
2022-11-30T15:41:28.849Z,4.45
2022-11-30T15:43:57.259Z,4.45
2022-11-30T15:46:33.234Z,4.44
2022-11-30T15:49:18.796Z,4.38
2022-11-30T15:51:47.514Z,4.34
2022-11-30T15:54:15.240Z,4.36
2022-11-30T15:56:41.672Z,4.30
2022-11-30T15:59:14.055Z,4.16
2022-11-30T16:02:14.426Z,4.24
2022-11-30T16:04:56.235Z,4.21
2022-11-30T16:07:30.008Z,4.17
2022-11-30T16:10:13.705Z,4.14
2022-11-30T16:12:42.835Z,4.10
2022-11-30T16:15:30.861Z,4.06
2022-11-30T16:18:00.480Z,4.08
2022-11-30T16:20:26.899Z,4.04
2022-11-30T16:22:53.332Z,4.00
2022-11-30T16:25:22.462Z,3.90
2022-11-30T16:27:49.340Z,3.91
2022-11-30T16:30:18.988Z,3.90
2022-11-30T16:32:45.533Z,3.92
2022-11-30T16:35:20.963Z,3.82
2022-11-30T16:37:47.785Z,3.80
2022-11-30T16:40:14.689Z,3.77
2022-11-30T16:42:41.382Z,3.71
2022-11-30T16:45:15.856Z,3.72
2022-11-30T16:47:43.537Z,3.60
2022-11-30T16:50:11.676Z,3.55
2022-11-30T16:52:39.012Z,3.44
2022-11-30T16:55:15.875Z,3.46
2022-11-30T16:57:42.428Z,3.51
2022-11-30T17:00:10.880Z,3.45
2022-11-30T17:02:42.858Z,3.45
2022-11-30T17:05:13.864Z,3.26
2022-11-30T17:07:40.673Z,3.30
2022-11-30T17:10:08.259Z,3.19
2022-11-30T17:12:37.462Z,3.22
2022-11-30T17:15:04.611Z,3.26
2022-11-30T17:17:31.053Z,3.26
2022-11-30T17:19:57.535Z,3.19
2022-11-30T17:22:23.962Z,3.10
2022-11-30T17:24:50.553Z,3.16
2022-11-30T17:27:17.069Z,3.12
2022-11-30T17:29:43.526Z,3.04
2022-11-30T17:32:10.005Z,3.06
2022-11-30T17:34:36.519Z,3.04
2022-11-30T17:37:02.923Z,2.99
2022-11-30T17:39:29.699Z,3.00
2022-11-30T17:41:56.430Z,2.98
2022-11-30T17:44:22.837Z,2.98
2022-11-30T17:46:49.363Z,2.94
2022-11-30T17:49:15.915Z,2.96
2022-11-30T17:51:42.492Z,2.94
2022-11-30T17:54:08.955Z,2.92
2022-11-30T17:56:35.849Z,2.88
2022-11-30T17:59:02.400Z,2.89
2022-11-30T18:01:29.298Z,2.92
2022-11-30T18:03:56.566Z,2.97
2022-11-30T18:06:23.031Z,2.91
2022-11-30T18:08:49.575Z,2.81
2022-11-30T18:11:20.359Z,2.89
2022-11-30T18:13:51.588Z,2.83
2022-11-30T18:16:21.143Z,2.84
2022-11-30T18:18:48.817Z,2.84
2022-11-30T18:21:18.034Z,2.82
2022-11-30T18:23:45.011Z,2.79
2022-11-30T18:26:14.237Z,2.80
2022-11-30T18:28:40.817Z,2.76
2022-11-30T18:31:07.554Z,2.68
2022-11-30T18:33:34.930Z,2.62
2022-11-30T18:36:02.888Z,2.69
2022-11-30T18:38:34.169Z,2.64
2022-11-30T18:41:02.259Z,2.75
2022-11-30T18:43:30.720Z,2.66
2022-11-30T18:46:09.280Z,2.69
2022-11-30T18:48:37.067Z,2.65
2022-11-30T18:51:16.817Z,2.66
2022-11-30T18:53:43.593Z,2.62
2022-11-30T18:56:13.173Z,2.54
2022-11-30T18:58:40.840Z,2.61
2022-11-30T19:01:13.262Z,2.56
2022-11-30T19:03:39.937Z,2.61
2022-11-30T19:06:08.018Z,2.61
2022-11-30T19:08:35.212Z,2.61
2022-11-30T19:11:06.147Z,2.60
2022-11-30T19:13:33.254Z,2.64
2022-11-30T19:16:08.604Z,2.70
2022-11-30T19:18:36.036Z,2.71
2022-11-30T19:21:10.902Z,2.60
2022-11-30T19:23:37.896Z,2.70
2022-11-30T19:26:05.892Z,2.63
2022-11-30T19:28:33.549Z,2.64
2022-11-30T19:31:00.816Z,2.60
2022-11-30T19:33:27.685Z,2.58
2022-11-30T19:36:00.025Z,2.57
2022-11-30T19:38:26.525Z,2.63
2022-11-30T19:40:53.113Z,2.60
2022-11-30T19:43:19.623Z,2.61
2022-11-30T19:45:46.121Z,2.61
2022-11-30T19:48:12.652Z,2.51
2022-11-30T19:50:39.147Z,2.48
2022-11-30T19:53:05.727Z,2.48
2022-11-30T19:55:32.854Z,2.51
2022-11-30T19:57:59.497Z,2.49
2022-11-30T20:00:25.971Z,2.53
2022-11-30T20:02:52.543Z,2.60
2022-11-30T20:05:19.085Z,2.57
2022-11-30T20:07:45.676Z,2.65
2022-11-30T20:10:13.400Z,2.64
2022-11-30T20:12:41.301Z,2.61
2022-11-30T20:15:08.327Z,2.60
2022-11-30T20:17:34.979Z,2.61
2022-11-30T20:20:01.577Z,2.62
2022-11-30T20:22:28.037Z,2.63
2022-11-30T20:24:54.498Z,2.65
2022-11-30T20:27:22.509Z,2.66
2022-11-30T20:29:50.240Z,2.57
2022-11-30T20:32:17.092Z,2.65
2022-11-30T20:34:44.730Z,2.66
2022-11-30T20:37:12.258Z,2.71
2022-11-30T20:39:44.078Z,2.76
2022-11-30T20:42:12.238Z,2.73
2022-11-30T20:44:38.787Z,2.80
2022-11-30T20:47:05.358Z,2.74
2022-11-30T20:49:31.983Z,2.70
2022-11-30T20:51:58.577Z,2.73
2022-11-30T20:54:25.131Z,2.74
2022-11-30T20:56:51.724Z,2.74
2022-11-30T20:59:26.327Z,2.75
2022-11-30T21:01:55.290Z,2.71
2022-11-30T21:04:23.555Z,2.74
2022-11-30T21:06:50.039Z,2.79
2022-11-30T21:09:18.420Z,2.79
2022-11-30T21:11:45.509Z,2.79
2022-11-30T21:14:12.534Z,2.77
2022-11-30T21:16:39.628Z,2.76
2022-11-30T21:19:06.188Z,2.76
2022-11-30T21:21:35.057Z,2.77
2022-11-30T21:24:07.680Z,2.70
2022-11-30T21:26:40.701Z,2.69
2022-11-30T21:29:11.804Z,2.66
2022-11-30T21:31:38.574Z,2.64
2022-11-30T21:34:05.124Z,2.72
2022-11-30T21:36:32.188Z,2.70
2022-11-30T21:39:05.880Z,2.71
2022-11-30T21:41:35.122Z,2.74
2022-11-30T21:44:02.232Z,2.69
2022-11-30T21:46:28.854Z,2.67
2022-11-30T21:48:55.409Z,2.68
2022-11-30T21:51:24.548Z,2.69
2022-11-30T21:53:53.637Z,2.68
2022-11-30T21:56:26.774Z,2.69
2022-11-30T21:58:53.533Z,2.70
2022-11-30T22:01:25.788Z,2.76
2022-11-30T22:03:54.372Z,2.74
2022-11-30T22:06:21.620Z,2.71
2022-11-30T22:08:48.490Z,2.75
2022-11-30T22:11:17.593Z,2.75
2022-11-30T22:13:45.063Z,2.73
2022-11-30T22:16:14.292Z,2.73
2022-11-30T22:18:42.540Z,2.74
2022-11-30T22:21:13.728Z,2.75
2022-11-30T22:23:45.965Z,2.72
2022-11-30T22:26:24.151Z,2.70
2022-11-30T22:28:54.039Z,2.70
2022-11-30T22:31:22.756Z,2.74
2022-11-30T22:33:49.693Z,2.78
2022-11-30T22:36:22.223Z,2.72
2022-11-30T22:38:54.592Z,2.74
2022-11-30T22:41:21.657Z,2.62
2022-11-30T22:43:48.578Z,2.64
2022-11-30T22:46:17.939Z,2.69
2022-11-30T22:48:45.327Z,2.74
2022-11-30T22:51:17.328Z,2.67
2022-11-30T22:53:43.793Z,2.70
2022-11-30T22:56:13.666Z,2.74
2022-11-30T22:58:41.751Z,2.69
2022-11-30T23:01:13.414Z,2.73
2022-11-30T23:03:41.287Z,2.74
2022-11-30T23:06:08.999Z,2.77
2022-11-30T23:08:35.973Z,2.70
2022-11-30T23:11:05.716Z,2.75
2022-11-30T23:13:32.338Z,2.78
2022-11-30T23:15:59.908Z,2.77
2022-11-30T23:18:31.265Z,2.74
2022-11-30T23:21:05.262Z,2.74
2022-11-30T23:23:31.798Z,2.68
2022-11-30T23:26:09.754Z,2.72
2022-11-30T23:28:36.329Z,2.69
2022-11-30T23:31:03.929Z,2.77
2022-11-30T23:33:30.394Z,2.72
2022-11-30T23:35:56.957Z,2.69
2022-11-30T23:38:23.469Z,2.70
2022-11-30T23:40:49.860Z,2.62
2022-11-30T23:43:16.325Z,2.64
2022-11-30T23:45:42.773Z,2.63
2022-11-30T23:48:10.229Z,2.65
2022-11-30T23:50:37.135Z,2.65
2022-11-30T23:53:03.529Z,2.65
2022-11-30T23:55:29.986Z,2.62
2022-11-30T23:57:56.373Z,2.76
